sensor_id;sensor_type;location;lat;lon;timestamp;pressure;altitude;pressure_sealevel;temperature;humidity
12182;BME280;6154;51.550;12.138;2023-04-15T00:00:56;99566.09;;;13.57;61.49
12182;BME280;6154;51.550;12.138;2023-04-15T00:03:26;99559.59;;;13.39;63.04
12182;BME280;6154;51.550;12.138;2023-04-15T00:05:56;99557.84;;;13.60;61.33
12182;BME280;6154;51.550;12.138;2023-04-15T00:08:24;99558.50;;;13.41;62.53
12182;BME280;6154;51.550;12.138;2023-04-15T00:10:52;99557.03;;;13.48;62.03
12182;BME280;6154;51.550;12.138;2023-04-15T00:13:20;99556.06;;;13.49;61.85
12182;BME280;6154;51.550;12.138;2023-04-15T00:15:48;99556.06;;;13.49;61.66
12182;BME280;6154;51.550;12.138;2023-04-15T00:18:16;99552.22;;;13.54;61.37
12182;BME280;6154;51.550;12.138;2023-04-15T00:20:44;99558.59;;;13.51;61.40
12182;BME280;6154;51.550;12.138;2023-04-15T00:23:14;99549.66;;;13.52;61.62
12182;BME280;6154;51.550;12.138;2023-04-15T00:25:42;99543.25;;;13.55;61.07
12182;BME280;6154;51.550;12.138;2023-04-15T00:28:10;99538.06;;;13.42;62.38
12182;BME280;6154;51.550;12.138;2023-04-15T00:30:41;99537.94;;;13.55;61.33
12182;BME280;6154;51.550;12.138;2023-04-15T00:33:10;99542.97;;;13.26;63.44
12182;BME280;6154;51.550;12.138;2023-04-15T00:35:38;99533.19;;;13.26;63.65
12182;BME280;6154;51.550;12.138;2023-04-15T00:38:06;99528.94;;;13.35;62.86
12182;BME280;6154;51.550;12.138;2023-04-15T00:40:36;99527.87;;;13.26;63.15
12182;BME280;6154;51.550;12.138;2023-04-15T00:43:04;99522.19;;;13.19;63.47
12182;BME280;6154;51.550;12.138;2023-04-15T00:45:32;99517.47;;;13.34;62.44
12182;BME280;6154;51.550;12.138;2023-04-15T00:48:01;99514.72;;;13.25;62.97
12182;BME280;6154;51.550;12.138;2023-04-15T00:50:29;99514.94;;;13.21;63.28
12182;BME280;6154;51.550;12.138;2023-04-15T00:52:57;99515.31;;;13.06;63.87
12182;BME280;6154;51.550;12.138;2023-04-15T00:55:25;99510.34;;;13.01;64.08
12182;BME280;6154;51.550;12.138;2023-04-15T00:57:55;99508.66;;;13.22;62.66
12182;BME280;6154;51.550;12.138;2023-04-15T01:00:23;99511.31;;;13.22;62.62
12182;BME280;6154;51.550;12.138;2023-04-15T01:02:52;99503.94;;;13.15;63.26
12182;BME280;6154;51.550;12.138;2023-04-15T01:05:22;99496.47;;;13.20;62.88
12182;BME280;6154;51.550;12.138;2023-04-15T01:07:50;99501.78;;;13.20;63.14
12182;BME280;6154;51.550;12.138;2023-04-15T01:10:19;99492.22;;;13.17;63.11
12182;BME280;6154;51.550;12.138;2023-04-15T01:12:47;99492.47;;;13.14;63.14
12182;BME280;6154;51.550;12.138;2023-04-15T01:15:17;99488.75;;;12.94;64.95
12182;BME280;6154;51.550;12.138;2023-04-15T01:17:46;99490.22;;;12.87;64.69
12182;BME280;6154;51.550;12.138;2023-04-15T01:20:14;99492.69;;;13.11;63.30
12182;BME280;6154;51.550;12.138;2023-04-15T01:22:43;99501.03;;;13.18;63.01
12182;BME280;6154;51.550;12.138;2023-04-15T01:25:15;99502.62;;;13.20;62.58
12182;BME280;6154;51.550;12.138;2023-04-15T01:27:45;99494.03;;;13.28;62.03
12182;BME280;6154;51.550;12.138;2023-04-15T01:30:14;99498.50;;;13.28;61.91
12182;BME280;6154;51.550;12.138;2023-04-15T01:32:43;99493.44;;;13.25;62.50
12182;BME280;6154;51.550;12.138;2023-04-15T01:35:30;99493.28;;;13.37;61.73
12182;BME280;6154;51.550;12.138;2023-04-15T01:38:04;99489.44;;;13.30;62.14
12182;BME280;6154;51.550;12.138;2023-04-15T01:40:32;99490.66;;;13.26;62.56
12182;BME280;6154;51.550;12.138;2023-04-15T01:43:03;99487.03;;;13.27;62.55
12182;BME280;6154;51.550;12.138;2023-04-15T01:45:32;99489.31;;;13.32;62.24
12182;BME280;6154;51.550;12.138;2023-04-15T01:48:07;99483.41;;;13.28;62.52
12182;BME280;6154;51.550;12.138;2023-04-15T01:50:37;99477.50;;;13.25;62.67
12182;BME280;6154;51.550;12.138;2023-04-15T01:53:07;99480.41;;;12.99;64.50
12182;BME280;6154;51.550;12.138;2023-04-15T01:55:36;99482.06;;;13.11;63.56
12182;BME280;6154;51.550;12.138;2023-04-15T01:58:08;99473.19;;;12.90;64.09
12182;BME280;6154;51.550;12.138;2023-04-15T02:00:37;99484.53;;;12.81;65.40
12182;BME280;6154;51.550;12.138;2023-04-15T02:03:07;99479.22;;;13.03;63.37
12182;BME280;6154;51.550;12.138;2023-04-15T02:05:38;99477.66;;;12.89;64.42
12182;BME280;6154;51.550;12.138;2023-04-15T02:08:08;99481.50;;;12.97;64.39
12182;BME280;6154;51.550;12.138;2023-04-15T02:10:38;99470.31;;;12.93;64.83
12182;BME280;6154;51.550;12.138;2023-04-15T02:13:08;99472.69;;;12.96;64.34
12182;BME280;6154;51.550;12.138;2023-04-15T02:15:38;99470.28;;;13.04;63.73
12182;BME280;6154;51.550;12.138;2023-04-15T02:18:07;99470.75;;;12.98;64.24
12182;BME280;6154;51.550;12.138;2023-04-15T02:20:36;99471.00;;;13.06;63.94
12182;BME280;6154;51.550;12.138;2023-04-15T02:23:06;99465.94;;;12.92;64.54
12182;BME280;6154;51.550;12.138;2023-04-15T02:25:36;99461.81;;;12.99;64.45
12182;BME280;6154;51.550;12.138;2023-04-15T02:28:06;99473.91;;;13.03;63.62
12182;BME280;6154;51.550;12.138;2023-04-15T02:30:36;99461.47;;;13.04;63.69
12182;BME280;6154;51.550;12.138;2023-04-15T02:33:08;99455.19;;;13.05;64.03
12182;BME280;6154;51.550;12.138;2023-04-15T02:35:37;99455.78;;;13.08;63.26
12182;BME280;6154;51.550;12.138;2023-04-15T02:38:09;99457.31;;;13.11;63.38
12182;BME280;6154;51.550;12.138;2023-04-15T02:40:41;99463.19;;;12.93;64.86
12182;BME280;6154;51.550;12.138;2023-04-15T02:43:11;99461.00;;;12.87;64.93
12182;BME280;6154;51.550;12.138;2023-04-15T02:45:41;99455.94;;;12.95;64.40
12182;BME280;6154;51.550;12.138;2023-04-15T02:48:11;99453.78;;;12.56;66.33
12182;BME280;6154;51.550;12.138;2023-04-15T02:50:41;99455.94;;;12.84;65.16
12182;BME280;6154;51.550;12.138;2023-04-15T02:53:12;99452.34;;;12.74;65.75
12182;BME280;6154;51.550;12.138;2023-04-15T02:55:42;99452.69;;;12.81;65.49
12182;BME280;6154;51.550;12.138;2023-04-15T02:58:11;99441.34;;;12.68;65.46
12182;BME280;6154;51.550;12.138;2023-04-15T03:00:42;99435.56;;;12.51;67.34
12182;BME280;6154;51.550;12.138;2023-04-15T03:03:12;99434.09;;;12.70;65.82
12182;BME280;6154;51.550;12.138;2023-04-15T03:05:43;99437.87;;;12.56;66.55
12182;BME280;6154;51.550;12.138;2023-04-15T03:08:12;99428.06;;;12.79;65.12
12182;BME280;6154;51.550;12.138;2023-04-15T03:10:42;99437.25;;;12.75;65.94
12182;BME280;6154;51.550;12.138;2023-04-15T03:13:12;99434.44;;;12.87;65.14
12182;BME280;6154;51.550;12.138;2023-04-15T03:15:44;99428.47;;;12.63;66.83
12182;BME280;6154;51.550;12.138;2023-04-15T03:18:13;99425.06;;;12.83;65.10
12182;BME280;6154;51.550;12.138;2023-04-15T03:20:45;99427.84;;;12.59;66.48
12182;BME280;6154;51.550;12.138;2023-04-15T03:23:15;99432.88;;;12.96;64.32
12182;BME280;6154;51.550;12.138;2023-04-15T03:25:45;99428.75;;;13.03;63.89
12182;BME280;6154;51.550;12.138;2023-04-15T03:28:14;99423.94;;;12.97;64.85
12182;BME280;6154;51.550;12.138;2023-04-15T03:30:45;99423.81;;;12.99;64.41
12182;BME280;6154;51.550;12.138;2023-04-15T03:33:15;99433.84;;;12.95;64.79
12182;BME280;6154;51.550;12.138;2023-04-15T03:35:44;99428.53;;;12.95;64.78
12182;BME280;6154;51.550;12.138;2023-04-15T03:38:13;99428.84;;;13.02;64.36
12182;BME280;6154;51.550;12.138;2023-04-15T03:40:45;99433.56;;;13.09;63.61
12182;BME280;6154;51.550;12.138;2023-04-15T03:43:14;99427.53;;;13.07;64.00
12182;BME280;6154;51.550;12.138;2023-04-15T03:45:45;99425.62;;;12.98;65.11
12182;BME280;6154;51.550;12.138;2023-04-15T03:48:15;99418.66;;;12.86;65.67
12182;BME280;6154;51.550;12.138;2023-04-15T03:50:45;99425.47;;;13.00;65.05
12182;BME280;6154;51.550;12.138;2023-04-15T03:53:15;99433.69;;;13.08;64.29
12182;BME280;6154;51.550;12.138;2023-04-15T03:55:44;99430.31;;;13.06;64.69
12182;BME280;6154;51.550;12.138;2023-04-15T03:58:13;99426.69;;;13.07;64.36
12182;BME280;6154;51.550;12.138;2023-04-15T04:00:43;99428.09;;;13.11;64.34
12182;BME280;6154;51.550;12.138;2023-04-15T04:03:14;99429.47;;;13.05;64.73
12182;BME280;6154;51.550;12.138;2023-04-15T04:05:43;99422.97;;;12.87;65.87
12182;BME280;6154;51.550;12.138;2023-04-15T04:08:13;99427.91;;;12.91;65.75
12182;BME280;6154;51.550;12.138;2023-04-15T04:10:43;99426.28;;;13.11;64.32
12182;BME280;6154;51.550;12.138;2023-04-15T04:13:12;99426.59;;;12.86;66.46
12182;BME280;6154;51.550;12.138;2023-04-15T04:15:42;99422.47;;;13.04;65.26
12182;BME280;6154;51.550;12.138;2023-04-15T04:18:11;99426.81;;;13.05;65.06
12182;BME280;6154;51.550;12.138;2023-04-15T04:20:41;99427.97;;;13.12;64.60
12182;BME280;6154;51.550;12.138;2023-04-15T04:23:11;99429.31;;;13.18;63.99
12182;BME280;6154;51.550;12.138;2023-04-15T04:25:40;99427.06;;;12.91;66.26
12182;BME280;6154;51.550;12.138;2023-04-15T04:28:13;99430.28;;;13.17;64.29
12182;BME280;6154;51.550;12.138;2023-04-15T04:30:42;99433.31;;;13.23;63.83
12182;BME280;6154;51.550;12.138;2023-04-15T04:33:12;99433.41;;;13.11;64.75
12182;BME280;6154;51.550;12.138;2023-04-15T04:35:42;99431.84;;;13.19;64.16
12182;BME280;6154;51.550;12.138;2023-04-15T04:38:11;99435.34;;;13.20;64.85
12182;BME280;6154;51.550;12.138;2023-04-15T04:40:41;99445.22;;;13.29;64.13
12182;BME280;6154;51.550;12.138;2023-04-15T04:43:10;99445.75;;;13.23;64.52
12182;BME280;6154;51.550;12.138;2023-04-15T04:45:42;99441.47;;;13.32;63.86
12182;BME280;6154;51.550;12.138;2023-04-15T04:48:11;99451.16;;;13.21;65.15
12182;BME280;6154;51.550;12.138;2023-04-15T04:50:40;99441.50;;;13.20;64.81
12182;BME280;6154;51.550;12.138;2023-04-15T04:53:11;99446.97;;;13.19;65.64
12182;BME280;6154;51.550;12.138;2023-04-15T04:55:40;99446.59;;;13.23;65.04
12182;BME280;6154;51.550;12.138;2023-04-15T04:58:10;99443.09;;;13.23;65.06
12182;BME280;6154;51.550;12.138;2023-04-15T05:00:39;99444.78;;;13.24;65.28
12182;BME280;6154;51.550;12.138;2023-04-15T05:03:09;99445.00;;;13.21;65.39
12182;BME280;6154;51.550;12.138;2023-04-15T05:05:39;99447.06;;;13.29;64.92
12182;BME280;6154;51.550;12.138;2023-04-15T05:08:08;99447.41;;;13.35;64.34
12182;BME280;6154;51.550;12.138;2023-04-15T05:10:39;99453.78;;;13.33;64.86
12182;BME280;6154;51.550;12.138;2023-04-15T05:13:09;99446.44;;;13.36;64.44
12182;BME280;6154;51.550;12.138;2023-04-15T05:15:38;99439.16;;;13.38;64.43
12182;BME280;6154;51.550;12.138;2023-04-15T05:18:10;99444.13;;;13.43;64.14
12182;BME280;6154;51.550;12.138;2023-04-15T05:20:39;99437.84;;;13.33;65.14
12182;BME280;6154;51.550;12.138;2023-04-15T05:23:09;99431.00;;;13.51;64.12
12182;BME280;6154;51.550;12.138;2023-04-15T05:25:42;99446.13;;;13.50;64.37
12182;BME280;6154;51.550;12.138;2023-04-15T05:28:11;99436.84;;;13.45;64.69
12182;BME280;6154;51.550;12.138;2023-04-15T05:30:40;99440.44;;;13.55;63.74
12182;BME280;6154;51.550;12.138;2023-04-15T05:33:10;99444.97;;;13.43;64.96
12182;BME280;6154;51.550;12.138;2023-04-15T05:35:39;99437.69;;;13.45;64.84
12182;BME280;6154;51.550;12.138;2023-04-15T05:38:09;99438.41;;;13.47;64.68
12182;BME280;6154;51.550;12.138;2023-04-15T05:40:38;99440.78;;;13.50;64.84
12182;BME280;6154;51.550;12.138;2023-04-15T05:43:08;99434.91;;;13.47;65.04
12182;BME280;6154;51.550;12.138;2023-04-15T05:45:38;99435.13;;;13.55;64.34
12182;BME280;6154;51.550;12.138;2023-04-15T05:48:07;99434.12;;;13.56;64.48
12182;BME280;6154;51.550;12.138;2023-04-15T05:50:40;99433.53;;;13.52;65.03
12182;BME280;6154;51.550;12.138;2023-04-15T05:53:10;99439.97;;;13.50;65.04
12182;BME280;6154;51.550;12.138;2023-04-15T05:55:39;99436.84;;;13.45;65.69
12182;BME280;6154;51.550;12.138;2023-04-15T05:58:10;99432.91;;;13.60;64.30
12182;BME280;6154;51.550;12.138;2023-04-15T06:00:39;99432.28;;;13.36;66.08
12182;BME280;6154;51.550;12.138;2023-04-15T06:03:09;99436.31;;;13.51;65.30
12182;BME280;6154;51.550;12.138;2023-04-15T06:05:39;99441.22;;;13.67;64.38
12182;BME280;6154;51.550;12.138;2023-04-15T06:08:09;99442.41;;;13.74;63.78
12182;BME280;6154;51.550;12.138;2023-04-15T06:10:38;99428.25;;;13.73;64.29
12182;BME280;6154;51.550;12.138;2023-04-15T06:13:07;99438.91;;;13.73;64.67
12182;BME280;6154;51.550;12.138;2023-04-15T06:15:38;99441.56;;;13.73;64.42
12182;BME280;6154;51.550;12.138;2023-04-15T06:18:08;99439.00;;;13.72;64.75
12182;BME280;6154;51.550;12.138;2023-04-15T06:20:39;99431.28;;;13.69;64.96
12182;BME280;6154;51.550;12.138;2023-04-15T06:23:08;99433.19;;;13.78;64.45
12182;BME280;6154;51.550;12.138;2023-04-15T06:25:38;99439.25;;;13.48;66.58
12182;BME280;6154;51.550;12.138;2023-04-15T06:28:08;99437.66;;;13.77;64.80
12182;BME280;6154;51.550;12.138;2023-04-15T06:30:38;99439.53;;;13.87;64.11
12182;BME280;6154;51.550;12.138;2023-04-15T06:33:08;99433.75;;;13.81;64.49
12182;BME280;6154;51.550;12.138;2023-04-15T06:35:37;99437.00;;;13.64;66.02
12182;BME280;6154;51.550;12.138;2023-04-15T06:38:07;99442.41;;;13.74;65.06
12182;BME280;6154;51.550;12.138;2023-04-15T06:40:37;99444.31;;;13.72;65.62
12182;BME280;6154;51.550;12.138;2023-04-15T06:43:07;99436.69;;;13.78;65.62
12182;BME280;6154;51.550;12.138;2023-04-15T06:45:38;99438.50;;;13.78;65.50
12182;BME280;6154;51.550;12.138;2023-04-15T06:48:08;99443.88;;;13.88;64.62
12182;BME280;6154;51.550;12.138;2023-04-15T06:50:37;99448.09;;;13.90;64.95
12182;BME280;6154;51.550;12.138;2023-04-15T06:53:07;99443.69;;;14.00;64.35
12182;BME280;6154;51.550;12.138;2023-04-15T06:55:36;99437.66;;;13.77;65.74
12182;BME280;6154;51.550;12.138;2023-04-15T06:58:06;99435.84;;;13.99;64.47
12182;BME280;6154;51.550;12.138;2023-04-15T07:00:35;99448.88;;;14.02;64.92
12182;BME280;6154;51.550;12.138;2023-04-15T07:03:07;99442.31;;;14.06;64.72
12182;BME280;6154;51.550;12.138;2023-04-15T07:05:38;99448.75;;;14.03;64.98
12182;BME280;6154;51.550;12.138;2023-04-15T07:08:07;99444.44;;;14.12;64.47
12182;BME280;6154;51.550;12.138;2023-04-15T07:10:37;99443.22;;;14.16;64.74
12182;BME280;6154;51.550;12.138;2023-04-15T07:13:06;99445.28;;;14.13;64.55
12182;BME280;6154;51.550;12.138;2023-04-15T07:15:36;99446.91;;;14.25;64.05
12182;BME280;6154;51.550;12.138;2023-04-15T07:18:05;99448.00;;;14.22;64.65
12182;BME280;6154;51.550;12.138;2023-04-15T07:20:36;99459.37;;;14.24;64.62
12182;BME280;6154;51.550;12.138;2023-04-15T07:23:05;99461.25;;;14.33;63.91
12182;BME280;6154;51.550;12.138;2023-04-15T07:25:35;99459.28;;;14.35;63.78
12182;BME280;6154;51.550;12.138;2023-04-15T07:28:04;99463.59;;;14.27;64.37
12182;BME280;6154;51.550;12.138;2023-04-15T07:30:34;99464.44;;;14.27;64.68
12182;BME280;6154;51.550;12.138;2023-04-15T07:33:03;99461.50;;;14.30;64.69
12182;BME280;6154;51.550;12.138;2023-04-15T07:35:32;99462.19;;;14.32;64.52
12182;BME280;6154;51.550;12.138;2023-04-15T07:38:03;99463.88;;;14.45;63.74
12182;BME280;6154;51.550;12.138;2023-04-15T07:40:33;99459.47;;;14.44;64.08
12182;BME280;6154;51.550;12.138;2023-04-15T07:43:02;99468.81;;;14.38;64.68
12182;BME280;6154;51.550;12.138;2023-04-15T07:45:32;99465.66;;;14.44;64.06
12182;BME280;6154;51.550;12.138;2023-04-15T07:48:03;99467.37;;;14.45;64.14
12182;BME280;6154;51.550;12.138;2023-04-15T07:50:32;99465.97;;;14.51;63.90
12182;BME280;6154;51.550;12.138;2023-04-15T07:53:03;99467.66;;;14.31;65.98
12182;BME280;6154;51.550;12.138;2023-04-15T07:55:33;99471.22;;;14.41;65.34
12182;BME280;6154;51.550;12.138;2023-04-15T07:58:02;99469.22;;;14.54;64.32
12182;BME280;6154;51.550;12.138;2023-04-15T08:00:32;99483.06;;;14.48;65.03
12182;BME280;6154;51.550;12.138;2023-04-15T08:03:01;99470.13;;;14.44;65.20
12182;BME280;6154;51.550;12.138;2023-04-15T08:05:31;99476.63;;;14.51;64.85
12182;BME280;6154;51.550;12.138;2023-04-15T08:08:00;99490.59;;;14.43;65.37
12182;BME280;6154;51.550;12.138;2023-04-15T08:10:31;99493.56;;;14.50;65.27
12182;BME280;6154;51.550;12.138;2023-04-15T08:13:01;99479.75;;;14.56;64.96
12182;BME280;6154;51.550;12.138;2023-04-15T08:15:30;99484.66;;;14.60;64.55
12182;BME280;6154;51.550;12.138;2023-04-15T08:18:00;99493.56;;;14.50;66.27
12182;BME280;6154;51.550;12.138;2023-04-15T08:20:29;99490.03;;;14.70;64.36
12182;BME280;6154;51.550;12.138;2023-04-15T08:22:59;99483.47;;;14.74;64.00
12182;BME280;6154;51.550;12.138;2023-04-15T08:25:30;99484.59;;;14.81;63.58
12182;BME280;6154;51.550;12.138;2023-04-15T08:28:03;99494.56;;;14.79;63.95
12182;BME280;6154;51.550;12.138;2023-04-15T08:30:32;99497.22;;;14.79;64.33
12182;BME280;6154;51.550;12.138;2023-04-15T08:33:02;99498.19;;;14.78;64.42
12182;BME280;6154;51.550;12.138;2023-04-15T08:35:31;99506.13;;;14.69;65.47
12182;BME280;6154;51.550;12.138;2023-04-15T08:38:00;99499.66;;;14.61;66.23
12182;BME280;6154;51.550;12.138;2023-04-15T08:40:40;99499.03;;;14.79;64.86
12182;BME280;6154;51.550;12.138;2023-04-15T08:43:12;99505.66;;;14.84;65.05
12182;BME280;6154;51.550;12.138;2023-04-15T08:45:44;99510.81;;;14.76;65.80
12182;BME280;6154;51.550;12.138;2023-04-15T08:48:16;99498.78;;;14.91;64.42
12182;BME280;6154;51.550;12.138;2023-04-15T08:50:46;99506.37;;;14.86;64.99
12182;BME280;6154;51.550;12.138;2023-04-15T08:53:16;99509.62;;;15.00;64.20
12182;BME280;6154;51.550;12.138;2023-04-15T08:55:51;99516.09;;;15.07;63.87
12182;BME280;6154;51.550;12.138;2023-04-15T08:58:20;99519.75;;;15.06;64.77
12182;BME280;6154;51.550;12.138;2023-04-15T09:00:50;99513.03;;;15.11;64.25
12182;BME280;6154;51.550;12.138;2023-04-15T09:03:19;99517.25;;;15.14;64.40
12182;BME280;6154;51.550;12.138;2023-04-15T09:05:50;99519.66;;;15.17;64.11
12182;BME280;6154;51.550;12.138;2023-04-15T09:08:20;99526.22;;;15.22;63.85
12182;BME280;6154;51.550;12.138;2023-04-15T09:10:51;99519.66;;;15.27;63.69
12182;BME280;6154;51.550;12.138;2023-04-15T09:13:20;99525.84;;;15.27;64.04
12182;BME280;6154;51.550;12.138;2023-04-15T09:15:50;99530.63;;;15.33;63.66
12182;BME280;6154;51.550;12.138;2023-04-15T09:18:27;99534.28;;;15.42;63.29
12182;BME280;6154;51.550;12.138;2023-04-15T09:21:03;99533.44;;;15.41;64.24
12182;BME280;6154;51.550;12.138;2023-04-15T09:23:34;99537.78;;;15.42;64.51
12182;BME280;6154;51.550;12.138;2023-04-15T09:26:05;99530.66;;;15.52;63.19
12182;BME280;6154;51.550;12.138;2023-04-15T09:28:40;99528.44;;;15.58;63.13
12182;BME280;6154;51.550;12.138;2023-04-15T09:31:10;99534.75;;;15.57;63.91
12182;BME280;6154;51.550;12.138;2023-04-15T09:33:53;99533.19;;;15.54;63.92
12182;BME280;6154;51.550;12.138;2023-04-15T09:36:23;99535.44;;;15.59;64.84
12182;BME280;6154;51.550;12.138;2023-04-15T09:38:58;99548.53;;;15.62;63.72
12182;BME280;6154;51.550;12.138;2023-04-15T09:41:29;99542.75;;;15.57;64.29
12182;BME280;6154;51.550;12.138;2023-04-15T09:43:58;99552.88;;;15.63;64.23
12182;BME280;6154;51.550;12.138;2023-04-15T09:46:41;99547.69;;;15.71;63.62
12182;BME280;6154;51.550;12.138;2023-04-15T09:49:11;99553.31;;;15.77;64.39
12182;BME280;6154;51.550;12.138;2023-04-15T09:51:40;99549.53;;;15.80;63.59
12182;BME280;6154;51.550;12.138;2023-04-15T09:54:32;99548.97;;;15.86;63.35
12182;BME280;6154;51.550;12.138;2023-04-15T09:57:07;99557.97;;;15.85;64.26
12182;BME280;6154;51.550;12.138;2023-04-15T09:59:37;99561.91;;;15.91;63.76
12182;BME280;6154;51.550;12.138;2023-04-15T10:02:07;99557.41;;;15.91;63.49
12182;BME280;6154;51.550;12.138;2023-04-15T10:04:39;99557.00;;;15.96;63.71
12182;BME280;6154;51.550;12.138;2023-04-15T10:07:10;99562.88;;;15.90;64.58
12182;BME280;6154;51.550;12.138;2023-04-15T10:09:41;99561.63;;;16.03;63.52
12182;BME280;6154;51.550;12.138;2023-04-15T10:12:15;99571.72;;;16.09;63.15
12182;BME280;6154;51.550;12.138;2023-04-15T10:14:48;99567.37;;;16.08;63.46
12182;BME280;6154;51.550;12.138;2023-04-15T10:17:21;99572.84;;;15.88;65.30
12182;BME280;6154;51.550;12.138;2023-04-15T10:19:54;99570.19;;;15.97;64.36
12182;BME280;6154;51.550;12.138;2023-04-15T10:22:23;99573.41;;;16.01;64.06
12182;BME280;6154;51.550;12.138;2023-04-15T10:24:55;99573.56;;;16.09;63.61
12182;BME280;6154;51.550;12.138;2023-04-15T10:27:27;99573.84;;;16.06;64.09
12182;BME280;6154;51.550;12.138;2023-04-15T10:29:59;99584.38;;;16.07;64.41
12182;BME280;6154;51.550;12.138;2023-04-15T10:32:30;99582.69;;;16.06;64.70
12182;BME280;6154;51.550;12.138;2023-04-15T10:35:00;99581.28;;;16.02;65.06
12182;BME280;6154;51.550;12.138;2023-04-15T10:37:35;99578.06;;;15.99;66.20
12182;BME280;6154;51.550;12.138;2023-04-15T10:40:25;99581.41;;;16.10;65.81
12182;BME280;6154;51.550;12.138;2023-04-15T10:42:57;99578.75;;;16.10;66.81
12182;BME280;6154;51.550;12.138;2023-04-15T10:45:32;99587.34;;;16.04;66.29
12182;BME280;6154;51.550;12.138;2023-04-15T10:48:03;99587.75;;;16.09;66.27
12182;BME280;6154;51.550;12.138;2023-04-15T10:50:36;99582.25;;;16.01;66.72
12182;BME280;6154;51.550;12.138;2023-04-15T10:53:08;99590.13;;;16.03;66.55
12182;BME280;6154;51.550;12.138;2023-04-15T10:55:38;99585.62;;;16.13;66.21
12182;BME280;6154;51.550;12.138;2023-04-15T10:58:10;99596.87;;;16.07;66.42
12182;BME280;6154;51.550;12.138;2023-04-15T11:00:49;99593.62;;;16.23;65.69
12182;BME280;6154;51.550;12.138;2023-04-15T11:03:35;99598.56;;;16.18;67.20
12182;BME280;6154;51.550;12.138;2023-04-15T11:06:06;99598.28;;;16.01;68.57
12182;BME280;6154;51.550;12.138;2023-04-15T11:08:56;99590.97;;;16.23;66.82
12182;BME280;6154;51.550;12.138;2023-04-15T11:12:05;99600.25;;;16.28;68.36
12182;BME280;6154;51.550;12.138;2023-04-15T11:14:40;99598.97;;;16.23;69.01
12182;BME280;6154;51.550;12.138;2023-04-15T11:17:10;99600.53;;;16.35;67.80
12182;BME280;6154;51.550;12.138;2023-04-15T11:19:40;99604.91;;;16.36;67.11
12182;BME280;6154;51.550;12.138;2023-04-15T11:22:10;99612.47;;;16.41;66.23
12182;BME280;6154;51.550;12.138;2023-04-15T11:24:46;99617.12;;;16.29;67.36
12182;BME280;6154;51.550;12.138;2023-04-15T11:27:21;99615.00;;;16.42;67.00
12182;BME280;6154;51.550;12.138;2023-04-15T11:29:52;99615.84;;;16.43;66.22
12182;BME280;6154;51.550;12.138;2023-04-15T11:32:21;99621.06;;;16.44;66.42
12182;BME280;6154;51.550;12.138;2023-04-15T11:34:51;99630.31;;;16.50;65.68
12182;BME280;6154;51.550;12.138;2023-04-15T11:37:27;99629.06;;;16.44;66.34
12182;BME280;6154;51.550;12.138;2023-04-15T11:39:56;99618.09;;;16.37;67.02
12182;BME280;6154;51.550;12.138;2023-04-15T11:42:26;99630.31;;;16.59;65.72
12182;BME280;6154;51.550;12.138;2023-04-15T11:45:15;99631.44;;;16.47;67.06
12182;BME280;6154;51.550;12.138;2023-04-15T11:47:44;99637.19;;;16.62;66.01
12182;BME280;6154;51.550;12.138;2023-04-15T11:50:16;99634.50;;;16.62;65.80
12182;BME280;6154;51.550;12.138;2023-04-15T11:52:54;99638.75;;;16.55;66.40
12182;BME280;6154;51.550;12.138;2023-04-15T11:55:23;99647.03;;;16.61;66.71
12182;BME280;6154;51.550;12.138;2023-04-15T11:58:05;99646.03;;;16.62;66.06
12182;BME280;6154;51.550;12.138;2023-04-15T12:00:36;99650.84;;;16.78;66.37
12182;BME280;6154;51.550;12.138;2023-04-15T12:03:27;99648.31;;;16.77;65.61
12182;BME280;6154;51.550;12.138;2023-04-15T12:06:07;99654.06;;;16.72;67.39
12182;BME280;6154;51.550;12.138;2023-04-15T12:09:02;99656.34;;;16.77;66.72
12182;BME280;6154;51.550;12.138;2023-04-15T12:11:38;99656.88;;;16.90;66.61
12182;BME280;6154;51.550;12.138;2023-04-15T12:14:09;99656.16;;;16.98;66.14
12182;BME280;6154;51.550;12.138;2023-04-15T12:16:41;99661.34;;;16.99;65.65
12182;BME280;6154;51.550;12.138;2023-04-15T12:19:18;99672.66;;;16.74;66.36
12182;BME280;6154;51.550;12.138;2023-04-15T12:21:49;99675.88;;;16.77;65.96
12182;BME280;6154;51.550;12.138;2023-04-15T12:24:20;99671.22;;;16.89;65.50
12182;BME280;6154;51.550;12.138;2023-04-15T12:26:50;99679.25;;;16.79;66.29
12182;BME280;6154;51.550;12.138;2023-04-15T12:29:19;99684.59;;;16.79;66.22
12182;BME280;6154;51.550;12.138;2023-04-15T12:31:51;99681.37;;;16.76;66.00
12182;BME280;6154;51.550;12.138;2023-04-15T12:34:26;99688.09;;;16.60;67.04
12182;BME280;6154;51.550;12.138;2023-04-15T12:36:55;99694.00;;;16.64;66.98
12182;BME280;6154;51.550;12.138;2023-04-15T12:39:26;99701.03;;;16.55;67.18
12182;BME280;6154;51.550;12.138;2023-04-15T12:41:56;99701.03;;;16.55;67.31
12182;BME280;6154;51.550;12.138;2023-04-15T12:44:27;99700.59;;;16.50;68.04
12182;BME280;6154;51.550;12.138;2023-04-15T12:46:56;99745.69;;;16.15;100.00
12182;BME280;6154;51.550;12.138;2023-04-15T12:49:27;99709.91;;;16.46;100.00
12182;BME280;6154;51.550;12.138;2023-04-15T12:51:56;99712.56;;;16.56;81.98
12182;BME280;6154;51.550;12.138;2023-04-15T12:54:26;99716.78;;;16.49;76.80
12182;BME280;6154;51.550;12.138;2023-04-15T12:56:55;99721.97;;;16.41;75.48
12182;BME280;6154;51.550;12.138;2023-04-15T12:59:24;99728.59;;;16.46;74.77
12182;BME280;6154;51.550;12.138;2023-04-15T13:01:52;99724.38;;;16.63;79.75
12182;BME280;6154;51.550;12.138;2023-04-15T13:04:22;99727.66;;;16.76;73.85
12182;BME280;6154;51.550;12.138;2023-04-15T13:06:50;99724.41;;;16.73;73.22
12182;BME280;6154;51.550;12.138;2023-04-15T13:09:19;99736.22;;;16.80;72.30
12182;BME280;6154;51.550;12.138;2023-04-15T13:11:48;99732.56;;;16.81;72.24
12182;BME280;6154;51.550;12.138;2023-04-15T13:14:16;99737.50;;;16.95;72.11
12182;BME280;6154;51.550;12.138;2023-04-15T13:16:44;99739.88;;;16.79;72.28
12182;BME280;6154;51.550;12.138;2023-04-15T13:19:13;99738.59;;;16.92;71.73